createdAt,value
2018-07-29T00:00:41.862Z,29.20
2018-07-29T00:03:09.167Z,26.37
2018-07-29T00:05:36.502Z,27.07
2018-07-29T00:08:03.813Z,27.77
2018-07-29T00:10:31.102Z,27.50
2018-07-29T00:12:58.443Z,25.40
2018-07-29T00:15:25.780Z,25.40
2018-07-29T00:17:53.078Z,25.20
2018-07-29T00:20:20.381Z,25.93
2018-07-29T00:22:47.681Z,28.97
2018-07-29T00:25:15.028Z,27.42
2018-07-29T00:27:42.375Z,26.75
2018-07-29T00:30:09.699Z,27.13
2018-07-29T00:32:37.046Z,28.27
2018-07-29T00:35:04.638Z,26.97
2018-07-29T00:37:32.003Z,27.70
2018-07-29T00:39:59.309Z,29.00
2018-07-29T00:42:26.620Z,26.40
2018-07-29T00:44:53.919Z,26.60
2018-07-29T00:47:21.449Z,25.67
2018-07-29T00:49:48.742Z,25.07
2018-07-29T00:52:15.998Z,27.02
2018-07-29T00:54:43.277Z,27.10
2018-07-29T00:57:10.582Z,24.95
2018-07-29T00:59:37.882Z,27.23
2018-07-29T01:02:05.221Z,26.77
2018-07-29T01:04:32.530Z,25.30
2018-07-29T01:06:59.839Z,25.10
2018-07-29T01:09:27.183Z,25.52
2018-07-29T01:11:54.590Z,27.23
2018-07-29T01:14:22.317Z,26.90
2018-07-29T01:16:49.615Z,24.97
2018-07-29T01:19:16.911Z,26.37
2018-07-29T01:21:44.222Z,26.17
2018-07-29T01:24:11.536Z,27.02
2018-07-29T01:26:38.861Z,24.18
2018-07-29T01:29:06.160Z,25.50
2018-07-29T01:31:33.449Z,25.07
2018-07-29T01:34:00.757Z,26.37
2018-07-29T01:36:28.061Z,24.40
2018-07-29T01:38:55.364Z,25.37
2018-07-29T01:41:22.890Z,27.02
2018-07-29T01:43:50.215Z,27.07
2018-07-29T01:46:17.517Z,26.97
2018-07-29T01:48:44.793Z,28.80
2018-07-29T01:51:12.111Z,26.73
2018-07-29T01:53:39.610Z,25.60
2018-07-29T01:56:07.014Z,24.90
2018-07-29T01:58:34.884Z,24.60
2018-07-29T02:01:02.245Z,27.57
2018-07-29T02:03:30.162Z,22.85
2018-07-29T02:05:57.707Z,25.08
2018-07-29T02:08:25.476Z,23.42
2018-07-29T02:10:52.843Z,24.82
2018-07-29T02:13:20.224Z,23.85
2018-07-29T02:15:47.639Z,24.02
2018-07-29T02:18:14.946Z,26.35
2018-07-29T02:20:42.254Z,26.05
2018-07-29T02:23:09.560Z,29.12
2018-07-29T02:25:37.031Z,27.65
2018-07-29T02:28:04.331Z,27.55
2018-07-29T02:30:31.671Z,28.92
2018-07-29T02:32:59.038Z,28.65
2018-07-29T02:35:26.527Z,32.37
2018-07-29T02:37:53.790Z,27.37
2018-07-29T02:40:21.295Z,28.15
2018-07-29T02:42:48.484Z,27.75
2018-07-29T02:45:16.113Z,28.77
2018-07-29T02:47:43.445Z,28.77
2018-07-29T02:50:10.754Z,28.80
2018-07-29T02:52:38.053Z,30.30
2018-07-29T02:55:05.409Z,32.07
2018-07-29T02:57:32.707Z,29.87
2018-07-29T03:00:00.032Z,28.98
2018-07-29T03:02:27.330Z,29.45
2018-07-29T03:04:54.650Z,30.17
2018-07-29T03:07:21.938Z,31.70
2018-07-29T03:09:49.299Z,29.98
2018-07-29T03:12:16.612Z,29.57
2018-07-29T03:14:43.904Z,31.55
2018-07-29T03:17:11.214Z,33.85
2018-07-29T03:19:38.538Z,31.25
2018-07-29T03:22:06.013Z,27.80
2018-07-29T03:24:33.395Z,33.53
2018-07-29T03:27:00.703Z,28.45
2018-07-29T03:29:27.986Z,29.37
2018-07-29T03:31:55.336Z,29.70
2018-07-29T03:34:22.625Z,29.15
2018-07-29T03:36:49.918Z,31.55
2018-07-29T03:39:17.169Z,28.20
2018-07-29T03:41:44.485Z,30.30
2018-07-29T03:44:11.781Z,32.03
2018-07-29T03:46:39.695Z,32.10
2018-07-29T03:49:07.138Z,31.68
2018-07-29T03:51:34.628Z,33.88
2018-07-29T03:54:01.927Z,32.73
2018-07-29T03:56:29.237Z,36.10
2018-07-29T03:58:56.566Z,30.25
2018-07-29T04:01:23.889Z,29.20
2018-07-29T04:03:51.239Z,29.63
2018-07-29T04:06:18.539Z,29.52
2018-07-29T04:08:46.223Z,27.17
2018-07-29T04:11:13.563Z,27.73
2018-07-29T04:13:40.859Z,31.70
2018-07-29T04:16:08.142Z,29.87
2018-07-29T04:18:35.909Z,28.07
2018-07-29T04:21:03.234Z,26.75
2018-07-29T04:23:30.574Z,28.02
2018-07-29T04:25:57.868Z,26.30
2018-07-29T04:28:25.190Z,27.25
2018-07-29T04:30:52.451Z,25.80
2018-07-29T04:33:19.722Z,25.92
2018-07-29T04:35:47.049Z,26.90
2018-07-29T04:38:14.594Z,27.00
2018-07-29T04:40:41.914Z,28.35
2018-07-29T04:43:09.226Z,26.12
2018-07-29T04:45:37.023Z,23.75
2018-07-29T04:48:04.295Z,25.52
2018-07-29T04:50:31.594Z,27.60
2018-07-29T04:52:58.883Z,27.93
2018-07-29T04:55:26.211Z,24.15
2018-07-29T04:57:53.637Z,24.23
2018-07-29T05:00:20.987Z,26.85
2018-07-29T05:02:48.277Z,30.20
2018-07-29T05:05:15.589Z,23.17
2018-07-29T05:07:42.890Z,24.43
2018-07-29T05:10:10.242Z,25.43
2018-07-29T05:12:37.501Z,26.13
2018-07-29T05:15:05.936Z,25.03
2018-07-29T05:17:33.526Z,26.30
2018-07-29T05:20:00.793Z,23.30
2018-07-29T05:22:28.130Z,23.60
2018-07-29T05:24:55.422Z,24.63
2018-07-29T05:27:22.747Z,26.83
2018-07-29T05:29:50.005Z,25.27
2018-07-29T05:32:17.307Z,24.30
2018-07-29T05:34:44.885Z,25.97
2018-07-29T05:37:12.170Z,21.90
2018-07-29T05:39:39.474Z,22.57
2018-07-29T05:42:06.796Z,23.20
2018-07-29T05:44:34.094Z,23.80
2018-07-29T05:47:01.395Z,24.63
2018-07-29T05:49:28.706Z,22.50
2018-07-29T05:51:56.006Z,24.93
2018-07-29T05:54:23.314Z,22.30
2018-07-29T05:56:50.618Z,23.13
2018-07-29T05:59:17.923Z,22.10
2018-07-29T06:01:45.624Z,21.90
2018-07-29T06:04:12.917Z,22.73
2018-07-29T06:06:40.196Z,25.57
2018-07-29T06:09:08.069Z,25.13
2018-07-29T06:11:35.398Z,23.77
2018-07-29T06:14:02.664Z,23.40
2018-07-29T06:16:29.966Z,23.20
2018-07-29T06:18:57.287Z,24.77
2018-07-29T06:21:24.629Z,25.93
2018-07-29T06:23:51.906Z,22.80
2018-07-29T06:26:19.190Z,21.70
2018-07-29T06:28:46.711Z,21.30
2018-07-29T06:31:14.062Z,23.80
2018-07-29T06:33:41.383Z,23.67
2018-07-29T06:36:08.703Z,22.87
2018-07-29T06:38:35.975Z,22.80
2018-07-29T06:41:03.325Z,24.40
2018-07-29T06:43:30.626Z,23.20
2018-07-29T06:45:57.960Z,28.97
2018-07-29T06:48:25.233Z,20.80
2018-07-29T06:50:52.593Z,22.00
2018-07-29T06:53:19.877Z,22.37
2018-07-29T06:55:47.394Z,24.30
2018-07-29T06:58:14.683Z,22.33
2018-07-29T07:00:42.002Z,22.97
2018-07-29T07:03:09.318Z,20.50
2018-07-29T07:05:36.692Z,23.87
2018-07-29T07:08:04.283Z,20.13
2018-07-29T07:10:31.605Z,21.00
2018-07-29T07:12:59.012Z,20.90
2018-07-29T07:15:26.311Z,21.10
2018-07-29T07:17:53.657Z,20.53
2018-07-29T07:20:20.950Z,20.30
2018-07-29T07:22:48.310Z,19.40
2018-07-29T07:25:15.611Z,19.00
2018-07-29T07:27:42.921Z,19.30
2018-07-29T07:30:10.220Z,18.37
2018-07-29T07:32:37.512Z,21.10
2018-07-29T07:35:04.819Z,19.80
2018-07-29T07:37:32.099Z,21.10
2018-07-29T07:39:59.406Z,21.83
2018-07-29T07:42:26.778Z,23.53
2018-07-29T07:44:54.082Z,19.73
2018-07-29T07:47:21.358Z,21.13
2018-07-29T07:49:48.661Z,19.30
2018-07-29T07:52:15.927Z,19.43
2018-07-29T07:54:43.212Z,20.27
2018-07-29T07:57:10.509Z,19.03
2018-07-29T07:59:37.843Z,20.53
2018-07-29T08:02:05.186Z,21.90
2018-07-29T08:04:32.425Z,19.27
2018-07-29T08:06:59.793Z,19.40
2018-07-29T08:09:27.153Z,19.27
2018-07-29T08:11:54.495Z,20.03
2018-07-29T08:14:21.808Z,20.77
2018-07-29T08:16:49.175Z,19.77
2018-07-29T08:19:16.513Z,18.67
2018-07-29T08:21:43.805Z,21.90
2018-07-29T08:24:11.119Z,19.93
2018-07-29T08:26:38.389Z,20.77
2018-07-29T08:29:05.714Z,19.70
2018-07-29T08:31:33.142Z,17.57
2018-07-29T08:34:00.476Z,17.47
2018-07-29T08:36:27.750Z,17.47
2018-07-29T08:38:55.119Z,18.40
2018-07-29T08:41:22.423Z,18.70
2018-07-29T08:43:49.725Z,16.90
2018-07-29T08:46:17.003Z,17.37
2018-07-29T08:48:44.309Z,18.67
2018-07-29T08:51:11.629Z,17.23
2018-07-29T08:53:38.962Z,17.80
2018-07-29T08:56:06.299Z,18.10
2018-07-29T08:58:33.559Z,17.43
2018-07-29T09:01:01.002Z,18.50
2018-07-29T09:03:28.275Z,17.70
2018-07-29T09:05:55.652Z,16.77
2018-07-29T09:08:22.972Z,17.50
2018-07-29T09:10:50.299Z,16.93
2018-07-29T09:13:17.561Z,16.60
2018-07-29T09:15:44.918Z,17.53
2018-07-29T09:18:12.260Z,16.80
2018-07-29T09:20:39.603Z,16.13
2018-07-29T09:23:06.874Z,17.90
2018-07-29T09:25:34.163Z,17.60
2018-07-29T09:28:01.772Z,16.30
2018-07-29T09:30:29.179Z,17.13
2018-07-29T09:32:56.441Z,16.93
2018-07-29T09:35:23.720Z,16.70
2018-07-29T09:37:51.173Z,16.30
2018-07-29T09:40:18.511Z,16.40
2018-07-29T09:42:45.815Z,19.57
2018-07-29T09:45:13.632Z,18.47
2018-07-29T09:47:40.905Z,16.77
2018-07-29T09:50:08.241Z,16.63
2018-07-29T09:52:35.521Z,17.97
2018-07-29T09:55:03.090Z,16.53
2018-07-29T09:57:30.412Z,16.97
2018-07-29T09:59:57.739Z,16.70
2018-07-29T10:02:25.069Z,16.83
2018-07-29T10:04:52.369Z,18.00
2018-07-29T10:07:19.645Z,18.13
2018-07-29T10:09:46.944Z,16.60
2018-07-29T10:12:14.245Z,16.13
2018-07-29T10:14:41.545Z,17.40
2018-07-29T10:17:09.590Z,16.93
2018-07-29T10:19:36.884Z,17.17
2018-07-29T10:22:04.236Z,19.00
2018-07-29T10:24:31.526Z,20.07
2018-07-29T10:26:58.931Z,17.73
2018-07-29T10:29:26.226Z,17.17
2018-07-29T10:31:53.480Z,16.00
2018-07-29T10:34:20.811Z,16.30
2018-07-29T10:36:48.086Z,15.13
2018-07-29T10:39:16.420Z,15.30
2018-07-29T10:41:44.442Z,17.40
2018-07-29T10:44:11.735Z,17.60
2018-07-29T10:46:39.485Z,19.37
2018-07-29T10:49:06.842Z,17.53
2018-07-29T10:51:34.162Z,15.70
2018-07-29T10:54:01.560Z,18.43
2018-07-29T10:56:28.887Z,15.80
2018-07-29T10:58:56.651Z,16.17
2018-07-29T11:01:23.994Z,16.23
2018-07-29T11:03:51.905Z,16.00
2018-07-29T11:06:19.263Z,15.60
2018-07-29T11:08:46.551Z,15.07
2018-07-29T11:11:13.862Z,15.20
2018-07-29T11:13:41.220Z,14.77
2018-07-29T11:16:08.638Z,17.10
2018-07-29T11:18:35.994Z,16.67
2018-07-29T11:21:03.294Z,14.70
2018-07-29T11:23:30.595Z,14.93
2018-07-29T11:25:57.879Z,14.60
2018-07-29T11:28:25.192Z,16.60
2018-07-29T11:30:52.484Z,15.40
2018-07-29T11:33:19.807Z,15.20
2018-07-29T11:35:47.105Z,15.73
2018-07-29T11:38:14.421Z,15.37
2018-07-29T11:40:41.735Z,17.67
2018-07-29T11:43:09.029Z,16.37
2018-07-29T11:45:36.330Z,15.47
2018-07-29T11:48:03.651Z,15.07
2018-07-29T11:50:30.963Z,15.00
2018-07-29T11:52:58.251Z,15.17
2018-07-29T11:55:25.521Z,15.10
2018-07-29T11:57:52.899Z,17.87
2018-07-29T12:00:20.173Z,14.80
2018-07-29T12:02:47.484Z,17.00
2018-07-29T12:05:14.990Z,14.93
2018-07-29T12:07:42.413Z,14.73
2018-07-29T12:10:10.108Z,16.10
2018-07-29T12:12:37.445Z,15.80
2018-07-29T12:15:04.923Z,17.10
2018-07-29T12:17:32.259Z,16.47
2018-07-29T12:19:59.639Z,16.30
2018-07-29T12:22:26.937Z,15.20
2018-07-29T12:24:54.519Z,17.23
2018-07-29T12:27:21.842Z,16.03
2018-07-29T12:29:49.211Z,16.60
2018-07-29T12:32:16.970Z,14.40
2018-07-29T12:34:44.583Z,17.53
2018-07-29T12:37:11.823Z,16.03
2018-07-29T12:39:39.122Z,16.47
2018-07-29T12:42:06.487Z,14.70
2018-07-29T12:44:33.808Z,15.93
2018-07-29T12:47:01.041Z,16.00
2018-07-29T12:49:28.341Z,15.13
2018-07-29T12:51:55.627Z,15.20
2018-07-29T12:54:22.966Z,14.00
2018-07-29T12:56:50.368Z,15.80
2018-07-29T12:59:18.062Z,15.67
2018-07-29T13:01:45.753Z,16.50
2018-07-29T13:04:13.015Z,14.90
2018-07-29T13:06:40.413Z,18.47
2018-07-29T13:09:08.267Z,17.13
2018-07-29T13:11:35.800Z,16.50
2018-07-29T13:14:03.143Z,15.57
2018-07-29T13:16:30.506Z,15.83
2018-07-29T13:18:57.835Z,15.20
2018-07-29T13:21:25.117Z,17.00
2018-07-29T13:23:52.411Z,14.40
2018-07-29T13:26:20.038Z,17.07
2018-07-29T13:28:47.335Z,16.00
2018-07-29T13:31:14.686Z,15.87
2018-07-29T13:33:42.049Z,15.70
2018-07-29T13:36:09.374Z,15.80
2018-07-29T13:38:36.679Z,15.77
2018-07-29T13:41:03.989Z,15.77
2018-07-29T13:43:31.431Z,16.50
2018-07-29T13:45:58.720Z,15.90
2018-07-29T13:48:26.011Z,15.37
2018-07-29T13:50:53.336Z,15.40
2018-07-29T13:53:20.751Z,15.57
2018-07-29T13:55:48.027Z,17.60
2018-07-29T13:58:15.356Z,15.90
2018-07-29T14:00:42.638Z,15.90
2018-07-29T14:03:09.986Z,16.07
2018-07-29T14:05:37.302Z,14.97
2018-07-29T14:08:04.650Z,16.10
2018-07-29T14:10:32.192Z,16.30
2018-07-29T14:12:59.590Z,14.90
2018-07-29T14:15:27.060Z,15.73
2018-07-29T14:17:54.463Z,14.60
2018-07-29T14:20:21.774Z,15.80
2018-07-29T14:22:49.207Z,16.17
2018-07-29T14:25:16.542Z,18.20
2018-07-29T14:27:43.890Z,15.97
2018-07-29T14:30:11.283Z,15.10
2018-07-29T14:32:38.748Z,16.07
2018-07-29T14:35:06.090Z,14.87
2018-07-29T14:37:33.401Z,14.70
2018-07-29T14:40:00.735Z,15.00
2018-07-29T14:42:28.025Z,18.10
2018-07-29T14:44:55.407Z,17.73
2018-07-29T14:47:22.771Z,15.43
2018-07-29T14:49:50.087Z,16.20
2018-07-29T14:52:17.461Z,15.23
2018-07-29T14:54:44.777Z,15.63
2018-07-29T14:57:12.075Z,15.10
2018-07-29T14:59:39.381Z,14.80
2018-07-29T15:02:06.839Z,15.30
2018-07-29T15:04:34.252Z,15.80
2018-07-29T15:07:01.606Z,15.30
2018-07-29T15:09:29.178Z,16.40
2018-07-29T15:11:56.496Z,15.43
2018-07-29T15:14:23.873Z,16.57
2018-07-29T15:16:51.092Z,16.57
2018-07-29T15:19:18.402Z,17.00
2018-07-29T15:21:45.720Z,15.27
2018-07-29T15:24:13.007Z,14.73
2018-07-29T15:26:40.348Z,14.73
2018-07-29T15:29:07.724Z,15.57
2018-07-29T15:31:35.137Z,15.27
2018-07-29T15:34:02.600Z,17.30
2018-07-29T15:36:30.285Z,16.07
2018-07-29T15:38:57.912Z,15.90
2018-07-29T15:41:25.201Z,15.60
2018-07-29T15:43:52.505Z,14.60
2018-07-29T15:46:19.869Z,15.20
2018-07-29T15:48:51.668Z,15.93
2018-07-29T15:51:19.115Z,17.77
2018-07-29T15:53:46.489Z,15.17
2018-07-29T15:56:14.021Z,15.23
2018-07-29T15:58:41.330Z,16.60
2018-07-29T16:01:08.658Z,15.57
2018-07-29T16:03:35.942Z,14.80
2018-07-29T16:06:03.343Z,15.30
2018-07-29T16:08:30.699Z,16.30
2018-07-29T16:10:58.046Z,17.37
2018-07-29T16:13:25.287Z,15.80
2018-07-29T16:15:52.599Z,15.20
2018-07-29T16:18:19.872Z,15.40
2018-07-29T16:20:47.180Z,16.00
2018-07-29T16:23:14.514Z,15.07
2018-07-29T16:25:41.842Z,15.67
2018-07-29T16:28:09.315Z,17.50
2018-07-29T16:30:37.005Z,15.33
2018-07-29T16:33:04.352Z,16.00
2018-07-29T16:35:31.639Z,15.70
2018-07-29T16:37:59.167Z,15.50
2018-07-29T16:40:26.528Z,14.90
2018-07-29T16:42:53.831Z,16.67
2018-07-29T16:45:21.152Z,15.07
2018-07-29T16:47:48.443Z,14.70
2018-07-29T16:50:15.866Z,14.70
2018-07-29T16:52:43.593Z,14.80
2018-07-29T17:04:56.055Z,18.10
2018-07-29T17:17:09.668Z,16.50
2018-07-29T17:19:37.015Z,15.00
2018-07-29T17:22:04.374Z,17.20
2018-07-29T17:24:31.726Z,16.10
2018-07-29T17:26:59.142Z,16.50
2018-07-29T17:29:27.490Z,15.90
2018-07-29T17:31:54.994Z,16.37
2018-07-29T17:34:22.474Z,15.60
2018-07-29T17:36:49.853Z,17.03
2018-07-29T17:39:17.233Z,16.93
2018-07-29T17:41:44.636Z,15.77
2018-07-29T17:44:15.340Z,15.80
2018-07-29T17:46:43.159Z,16.50
2018-07-29T17:49:16.916Z,16.33
2018-07-29T17:51:44.364Z,15.70
2018-07-29T17:54:11.643Z,16.90
2018-07-29T17:56:40.867Z,15.90
2018-07-29T17:59:08.347Z,15.20
2018-07-29T18:01:39.422Z,20.30
2018-07-29T18:04:07.920Z,16.00
2018-07-29T18:06:35.468Z,17.00
2018-07-29T18:09:03.814Z,16.20
2018-07-29T18:11:31.150Z,16.30
2018-07-29T18:13:58.944Z,15.13
2018-07-29T18:16:26.865Z,14.80
2018-07-29T18:18:54.365Z,15.37
2018-07-29T18:21:21.721Z,15.53
2018-07-29T18:23:49.131Z,15.20
2018-07-29T18:26:17.260Z,15.80
2018-07-29T18:28:45.506Z,16.23
2018-07-29T18:31:12.923Z,15.97
2018-07-29T18:33:44.281Z,16.50
2018-07-29T18:36:12.186Z,15.73
2018-07-29T18:38:39.772Z,15.80
2018-07-29T18:41:07.255Z,15.37
2018-07-29T18:43:34.652Z,16.63
2018-07-29T18:46:02.103Z,15.20
2018-07-29T18:48:29.454Z,16.67
2018-07-29T18:51:06.042Z,16.20
2018-07-29T18:53:34.063Z,15.60
2018-07-29T18:56:01.504Z,16.03
2018-07-29T18:58:28.855Z,16.53
2018-07-29T19:00:56.183Z,17.27
2018-07-29T19:03:23.526Z,16.70
2018-07-29T19:05:51.121Z,16.20
2018-07-29T19:08:20.028Z,17.90
2018-07-29T19:10:47.755Z,16.40
2018-07-29T19:13:15.137Z,19.03
2018-07-29T19:15:47.027Z,19.17
2018-07-29T19:18:14.348Z,17.43
2018-07-29T19:20:41.872Z,17.20
2018-07-29T19:23:10.287Z,17.50
2018-07-29T19:25:39.052Z,17.00
2018-07-29T19:28:07.090Z,18.30
2018-07-29T19:30:34.428Z,17.43
2018-07-29T19:33:01.795Z,17.80
2018-07-29T19:35:29.244Z,17.87
2018-07-29T19:37:57.230Z,18.63
2018-07-29T19:40:24.662Z,17.80
2018-07-29T19:42:52.271Z,18.93
2018-07-29T19:45:19.657Z,18.47
2018-07-29T19:47:47.158Z,18.90
2018-07-29T19:50:16.340Z,19.13
2018-07-29T19:52:43.873Z,18.00
2018-07-29T19:55:12.233Z,18.23
2018-07-29T19:57:39.610Z,17.47
2018-07-29T20:00:07.957Z,18.80
2018-07-29T20:02:35.361Z,17.10
2018-07-29T20:05:02.766Z,20.00
2018-07-29T20:07:30.146Z,17.43
2018-07-29T20:09:57.872Z,16.87
2018-07-29T20:12:25.318Z,19.30
2018-07-29T20:14:54.063Z,17.60
2018-07-29T20:17:25.519Z,18.73
2018-07-29T20:19:52.815Z,18.83
2018-07-29T20:22:20.627Z,21.23
2018-07-29T20:24:48.132Z,18.40
2018-07-29T20:27:15.446Z,18.93
2018-07-29T20:29:43.565Z,16.97
2018-07-29T20:32:11.239Z,18.67
2018-07-29T20:34:43.103Z,17.27
2018-07-29T20:37:10.478Z,18.80
2018-07-29T20:39:38.487Z,17.20
2018-07-29T20:42:06.520Z,19.17
2018-07-29T20:44:34.004Z,17.47
2018-07-29T20:47:01.469Z,18.47
2018-07-29T20:49:29.679Z,17.70
2018-07-29T20:51:57.074Z,20.40
2018-07-29T20:54:24.578Z,24.70
2018-07-29T20:56:52.222Z,17.73
2018-07-29T20:59:19.815Z,17.47
2018-07-29T21:01:47.265Z,17.07
2018-07-29T21:04:14.621Z,18.70
2018-07-29T21:06:42.077Z,18.33
2018-07-29T21:09:11.481Z,18.10
2018-07-29T21:11:38.905Z,16.87
2018-07-29T21:23:55.836Z,18.07
2018-07-29T21:26:23.304Z,17.37
2018-07-29T21:28:50.731Z,18.17
2018-07-29T21:31:21.687Z,17.90
2018-07-29T21:33:49.141Z,19.00
2018-07-29T21:36:21.239Z,17.70
2018-07-29T21:38:48.597Z,17.20
2018-07-29T21:41:16.014Z,17.80
2018-07-29T21:43:47.704Z,18.03
2018-07-29T21:46:16.962Z,17.20
2018-07-29T21:48:47.790Z,17.83
2018-07-29T21:51:20.952Z,18.47
2018-07-29T21:53:48.957Z,18.00
2018-07-29T21:56:16.435Z,17.77
2018-07-29T21:58:49.044Z,18.00
2018-07-29T22:01:16.395Z,18.50
2018-07-29T22:03:43.777Z,22.13
2018-07-29T22:06:12.070Z,19.73
2018-07-29T22:08:40.421Z,17.90
2018-07-29T22:11:07.889Z,18.63
2018-07-29T22:13:39.473Z,17.23
2018-07-29T22:16:07.345Z,17.37
2018-07-29T22:18:39.648Z,17.67
2018-07-29T22:21:07.400Z,16.70
2018-07-29T22:23:34.743Z,18.10
2018-07-29T22:26:07.620Z,18.70
2018-07-29T22:38:20.777Z,17.07
2018-07-29T22:40:52.382Z,17.67
2018-07-29T22:43:19.702Z,18.87
2018-07-29T22:55:32.108Z,23.50
2018-07-29T22:58:00.540Z,18.40
2018-07-29T23:00:34.078Z,17.50
2018-07-29T23:03:06.135Z,17.73
2018-07-29T23:05:33.451Z,18.60
2018-07-29T23:08:01.219Z,16.90
2018-07-29T23:10:29.009Z,17.33
2018-07-29T23:12:57.482Z,18.00
2018-07-29T23:15:25.382Z,18.43
2018-07-29T23:17:52.698Z,18.30
2018-07-29T23:20:20.164Z,17.77
2018-07-29T23:22:51.763Z,18.10
2018-07-29T23:25:19.176Z,19.13
2018-07-29T23:27:46.513Z,20.60
2018-07-29T23:30:14.322Z,18.00
2018-07-29T23:32:41.917Z,17.43
2018-07-29T23:35:09.942Z,16.83
2018-07-29T23:37:37.645Z,20.40
2018-07-29T23:40:05.026Z,16.97
2018-07-29T23:42:32.332Z,19.63
2018-07-29T23:45:00.022Z,20.63
2018-07-29T23:47:32.833Z,18.70
2018-07-29T23:50:00.158Z,16.60
2018-07-29T23:52:27.482Z,19.40
2018-07-29T23:54:54.814Z,17.83
2018-07-29T23:57:22.151Z,17.13
2018-07-29T23:59:49.481Z,17.87
